Terminal Aerodrome Forecast
Issued by NWS Wilmington, OH

Current Version | Previous Version | Graphics & Text | Print | Product List | Glossary On
Versions: 1 2 3 4 5 6 7 8 9 10 11 12 13 14 15
000
FTUS41 KILN 190500
TAFILN
TAF
KILN 190538Z 1906/2006 VRB03KT P6SM BKN022 OVC050
      TEMPO 1906/1910 BKN015
     FM192000 02003KT P6SM OVC035=

USA.gov is the U.S. government's official web portal to all federal, state and local government web resources and services.